sensor_id;sensor_type;location;lat;lon;timestamp;pressure;altitude;pressure_sealevel;temperature;humidity
19259;BME280;9763;48.780;9.212;2022-10-16T00:01:07;98245.16;;;20.12;80.08
19259;BME280;9763;48.780;9.212;2022-10-16T00:04:31;98256.06;;;20.09;80.29
19259;BME280;9763;48.780;9.212;2022-10-16T00:07:55;98245.78;;;20.06;80.08
19259;BME280;9763;48.780;9.212;2022-10-16T00:11:20;98234.88;;;20.01;79.98
19259;BME280;9763;48.780;9.212;2022-10-16T00:14:48;98236.19;;;19.97;80.46
19259;BME280;9763;48.780;9.212;2022-10-16T00:18:13;98236.66;;;19.93;80.27
19259;BME280;9763;48.780;9.212;2022-10-16T00:21:38;98230.19;;;19.87;80.42
19259;BME280;9763;48.780;9.212;2022-10-16T00:25:03;98227.19;;;19.82;80.29
19259;BME280;9763;48.780;9.212;2022-10-16T00:28:28;98233.84;;;19.78;80.26
19259;BME280;9763;48.780;9.212;2022-10-16T00:31:54;98239.59;;;19.73;80.73
19259;BME280;9763;48.780;9.212;2022-10-16T00:35:18;98234.78;;;19.69;80.55
19259;BME280;9763;48.780;9.212;2022-10-16T00:38:42;98241.41;;;19.65;80.12
19259;BME280;9763;48.780;9.212;2022-10-16T00:42:06;98241.72;;;19.62;80.14
19259;BME280;9763;48.780;9.212;2022-10-16T00:45:29;98245.66;;;19.58;80.33
19259;BME280;9763;48.780;9.212;2022-10-16T00:48:57;98253.13;;;19.54;80.04
19259;BME280;9763;48.780;9.212;2022-10-16T00:52:22;98248.28;;;19.50;80.54
19259;BME280;9763;48.780;9.212;2022-10-16T00:55:47;98241.34;;;19.49;80.17
19259;BME280;9763;48.780;9.212;2022-10-16T00:59:15;98239.81;;;19.46;80.05
19259;BME280;9763;48.780;9.212;2022-10-16T01:02:39;98246.28;;;19.43;80.49
19259;BME280;9763;48.780;9.212;2022-10-16T01:06:21;98257.16;;;19.40;80.58
19259;BME280;9763;48.780;9.212;2022-10-16T01:09:54;98265.25;;;19.39;80.52
19259;BME280;9763;48.780;9.212;2022-10-16T01:13:24;98260.13;;;19.37;80.64
19259;BME280;9763;48.780;9.212;2022-10-16T01:16:55;98256.50;;;19.38;80.39
19259;BME280;9763;48.780;9.212;2022-10-16T01:20:27;98265.94;;;19.41;80.77
19259;BME280;9763;48.780;9.212;2022-10-16T01:24:03;98269.06;;;19.44;80.65
19259;BME280;9763;48.780;9.212;2022-10-16T01:27:35;98260.81;;;19.48;80.59
19259;BME280;9763;48.780;9.212;2022-10-16T01:31:01;98254.41;;;19.50;80.73
19259;BME280;9763;48.780;9.212;2022-10-16T01:34:28;98245.66;;;19.50;81.20
19259;BME280;9763;48.780;9.212;2022-10-16T01:38:00;98255.41;;;19.49;80.69
19259;BME280;9763;48.780;9.212;2022-10-16T01:41:33;98254.41;;;19.50;80.75
19259;BME280;9763;48.780;9.212;2022-10-16T01:45:00;98246.16;;;19.53;80.69
19259;BME280;9763;48.780;9.212;2022-10-16T01:48:25;98245.81;;;19.56;80.58
19259;BME280;9763;48.780;9.212;2022-10-16T01:51:52;98251.13;;;19.56;80.50
19259;BME280;9763;48.780;9.212;2022-10-16T01:55:21;98247.31;;;19.59;80.76
19259;BME280;9763;48.780;9.212;2022-10-16T01:58:51;98239.22;;;19.60;81.04
19259;BME280;9763;48.780;9.212;2022-10-16T02:02:20;98244.53;;;19.60;80.72
19259;BME280;9763;48.780;9.212;2022-10-16T02:05:47;98248.00;;;19.61;80.41
19259;BME280;9763;48.780;9.212;2022-10-16T02:09:14;98232.94;;;19.61;80.72
19259;BME280;9763;48.780;9.212;2022-10-16T02:12:41;98235.28;;;19.64;80.18
19259;BME280;9763;48.780;9.212;2022-10-16T02:16:07;98237.94;;;19.64;80.15
19259;BME280;9763;48.780;9.212;2022-10-16T02:19:32;98243.06;;;19.66;80.30
19259;BME280;9763;48.780;9.212;2022-10-16T02:22:57;98243.22;;;19.64;79.90
19259;BME280;9763;48.780;9.212;2022-10-16T02:26:27;98248.53;;;19.64;80.02
19259;BME280;9763;48.780;9.212;2022-10-16T02:29:55;98246.69;;;19.65;80.63
19259;BME280;9763;48.780;9.212;2022-10-16T02:33:22;98238.59;;;19.66;80.54
19259;BME280;9763;48.780;9.212;2022-10-16T02:36:51;98234.13;;;19.67;80.45
19259;BME280;9763;48.780;9.212;2022-10-16T02:40:17;98234.13;;;19.67;80.46
19259;BME280;9763;48.780;9.212;2022-10-16T02:43:46;98234.13;;;19.67;80.04
19259;BME280;9763;48.780;9.212;2022-10-16T02:47:11;98241.25;;;19.66;80.57
19259;BME280;9763;48.780;9.212;2022-10-16T02:50:35;98237.94;;;19.64;80.11
19259;BME280;9763;48.780;9.212;2022-10-16T02:54:01;98247.84;;;19.62;80.02
19259;BME280;9763;48.780;9.212;2022-10-16T02:57:24;98248.84;;;19.61;80.20
19259;BME280;9763;48.780;9.212;2022-10-16T03:00:48;98255.78;;;19.62;80.43
19259;BME280;9763;48.780;9.212;2022-10-16T03:04:12;98264.03;;;19.59;79.95
19259;BME280;9763;48.780;9.212;2022-10-16T03:07:36;98260.72;;;19.57;79.91
19259;BME280;9763;48.780;9.212;2022-10-16T03:11:01;98250.47;;;19.54;79.67
19259;BME280;9763;48.780;9.212;2022-10-16T03:14:25;98259.56;;;19.52;79.55
19259;BME280;9763;48.780;9.212;2022-10-16T03:17:54;98261.53;;;19.50;80.10
19259;BME280;9763;48.780;9.212;2022-10-16T03:21:18;98252.06;;;19.47;80.20
19259;BME280;9763;48.780;9.212;2022-10-16T03:24:41;98255.69;;;19.46;79.66
19259;BME280;9763;48.780;9.212;2022-10-16T03:28:06;98262.97;;;19.44;79.50
19259;BME280;9763;48.780;9.212;2022-10-16T03:31:30;98257.00;;;19.42;80.13
19259;BME280;9763;48.780;9.212;2022-10-16T03:34:54;98252.69;;;19.41;79.62
19259;BME280;9763;48.780;9.212;2022-10-16T03:38:19;98256.34;;;19.40;79.78
19259;BME280;9763;48.780;9.212;2022-10-16T03:41:43;98264.75;;;19.35;80.16
19259;BME280;9763;48.780;9.212;2022-10-16T03:45:10;98259.59;;;19.34;80.38
19259;BME280;9763;48.780;9.212;2022-10-16T03:48:34;98271.03;;;19.34;79.77
19259;BME280;9763;48.780;9.212;2022-10-16T03:51:58;98259.94;;;19.31;80.25
19259;BME280;9763;48.780;9.212;2022-10-16T03:55:21;98259.28;;;19.29;80.11
19259;BME280;9763;48.780;9.212;2022-10-16T03:58:45;98266.69;;;19.25;80.06
19259;BME280;9763;48.780;9.212;2022-10-16T04:02:10;98270.81;;;19.20;80.18
19259;BME280;9763;48.780;9.212;2022-10-16T04:05:34;98267.47;;;19.18;80.53
19259;BME280;9763;48.780;9.212;2022-10-16T04:08:58;98264.00;;;19.17;79.97
19259;BME280;9763;48.780;9.212;2022-10-16T04:12:22;98265.97;;;19.15;80.39
19259;BME280;9763;48.780;9.212;2022-10-16T04:15:46;98268.47;;;19.17;80.04
19259;BME280;9763;48.780;9.212;2022-10-16T04:19:11;98271.78;;;19.19;80.08
19259;BME280;9763;48.780;9.212;2022-10-16T04:22:35;98270.97;;;19.18;79.52
19259;BME280;9763;48.780;9.212;2022-10-16T04:26:00;98266.97;;;19.14;80.21
19259;BME280;9763;48.780;9.212;2022-10-16T04:29:24;98269.91;;;19.11;79.64
19259;BME280;9763;48.780;9.212;2022-10-16T04:32:48;98268.25;;;19.10;80.18
19259;BME280;9763;48.780;9.212;2022-10-16T04:36:14;98273.53;;;19.10;80.35
19259;BME280;9763;48.780;9.212;2022-10-16T04:39:37;98277.00;;;19.11;80.24
19259;BME280;9763;48.780;9.212;2022-10-16T04:43:01;98268.25;;;19.10;80.27
19259;BME280;9763;48.780;9.212;2022-10-16T04:46:25;98277.16;;;19.09;80.07
19259;BME280;9763;48.780;9.212;2022-10-16T04:49:49;98284.13;;;19.10;79.54
19259;BME280;9763;48.780;9.212;2022-10-16T04:53:14;98287.94;;;19.08;79.64
19259;BME280;9763;48.780;9.212;2022-10-16T04:56:37;98288.91;;;19.06;79.98
19259;BME280;9763;48.780;9.212;2022-10-16T05:00:09;98299.81;;;19.03;80.14
19259;BME280;9763;48.780;9.212;2022-10-16T05:03:34;98299.13;;;19.01;80.00
19259;BME280;9763;48.780;9.212;2022-10-16T05:06:57;98308.88;;;19.01;80.46
19259;BME280;9763;48.780;9.212;2022-10-16T05:10:23;98309.72;;;19.01;80.61
19259;BME280;9763;48.780;9.212;2022-10-16T05:13:47;98309.56;;;19.03;80.45
19259;BME280;9763;48.780;9.212;2022-10-16T05:17:15;98302.59;;;19.02;80.15
19259;BME280;9763;48.780;9.212;2022-10-16T05:20:39;98308.56;;;19.04;80.05
19259;BME280;9763;48.780;9.212;2022-10-16T05:24:03;98297.16;;;19.03;80.58
19259;BME280;9763;48.780;9.212;2022-10-16T05:27:28;98304.13;;;19.04;80.04
19259;BME280;9763;48.780;9.212;2022-10-16T05:30:52;98300.47;;;19.05;80.53
19259;BME280;9763;48.780;9.212;2022-10-16T05:34:16;98304.13;;;19.04;80.53
19259;BME280;9763;48.780;9.212;2022-10-16T05:37:40;98302.59;;;19.02;80.22
19259;BME280;9763;48.780;9.212;2022-10-16T05:41:04;98300.41;;;18.97;80.39
19259;BME280;9763;48.780;9.212;2022-10-16T05:44:29;98316.63;;;18.94;79.78
19259;BME280;9763;48.780;9.212;2022-10-16T05:47:53;98321.38;;;18.91;79.75
19259;BME280;9763;48.780;9.212;2022-10-16T05:51:17;98308.44;;;18.88;79.55
19259;BME280;9763;48.780;9.212;2022-10-16T05:54:41;98320.84;;;18.87;79.62
19259;BME280;9763;48.780;9.212;2022-10-16T05:58:04;98313.59;;;18.89;80.26
19259;BME280;9763;48.780;9.212;2022-10-16T06:01:30;98327.19;;;18.94;80.03
19259;BME280;9763;48.780;9.212;2022-10-16T06:04:54;98327.69;;;18.98;80.40
19259;BME280;9763;48.780;9.212;2022-10-16T06:08:19;98340.63;;;19.01;80.06
19259;BME280;9763;48.780;9.212;2022-10-16T06:11:43;98341.00;;;19.06;80.46
19259;BME280;9763;48.780;9.212;2022-10-16T06:15:07;98342.34;;;19.10;80.38
19259;BME280;9763;48.780;9.212;2022-10-16T06:18:32;98345.34;;;19.15;79.97
19259;BME280;9763;48.780;9.212;2022-10-16T06:21:56;98344.06;;;19.19;80.30
19259;BME280;9763;48.780;9.212;2022-10-16T06:25:20;98351.69;;;19.22;79.83
19259;BME280;9763;48.780;9.212;2022-10-16T06:28:44;98351.22;;;19.27;79.86
19259;BME280;9763;48.780;9.212;2022-10-16T06:32:08;98354.41;;;19.30;80.35
19259;BME280;9763;48.780;9.212;2022-10-16T06:35:35;98360.19;;;19.34;80.20
19259;BME280;9763;48.780;9.212;2022-10-16T06:38:58;98352.47;;;19.40;80.34
19259;BME280;9763;48.780;9.212;2022-10-16T06:42:22;98357.69;;;19.50;80.33
19259;BME280;9763;48.780;9.212;2022-10-16T06:45:51;98357.72;;;19.58;79.92
19259;BME280;9763;48.780;9.212;2022-10-16T06:49:15;98367.53;;;19.66;80.05
19259;BME280;9763;48.780;9.212;2022-10-16T06:52:45;98368.69;;;19.71;79.66
19259;BME280;9763;48.780;9.212;2022-10-16T06:56:10;98381.63;;;19.74;79.48
19259;BME280;9763;48.780;9.212;2022-10-16T06:59:34;98386.63;;;19.77;80.24
19259;BME280;9763;48.780;9.212;2022-10-16T07:02:58;98386.28;;;19.81;80.26
19259;BME280;9763;48.780;9.212;2022-10-16T07:06:24;98387.47;;;19.86;79.71
19259;BME280;9763;48.780;9.212;2022-10-16T07:09:49;98391.34;;;19.92;79.89
19259;BME280;9763;48.780;9.212;2022-10-16T07:13:13;98405.59;;;19.99;79.81
19259;BME280;9763;48.780;9.212;2022-10-16T07:16:37;98401.16;;;20.07;80.08
19259;BME280;9763;48.780;9.212;2022-10-16T07:20:01;98415.94;;;20.18;80.27
19259;BME280;9763;48.780;9.212;2022-10-16T07:23:24;98419.13;;;20.30;80.17
19259;BME280;9763;48.780;9.212;2022-10-16T07:26:50;98423.66;;;20.37;80.19
19259;BME280;9763;48.780;9.212;2022-10-16T07:30:14;98432.63;;;20.44;80.15
19259;BME280;9763;48.780;9.212;2022-10-16T07:33:38;98440.09;;;20.49;79.55
19259;BME280;9763;48.780;9.212;2022-10-16T07:37:04;98436.63;;;20.48;79.43
19259;BME280;9763;48.780;9.212;2022-10-16T07:40:28;98438.13;;;20.51;79.44
19259;BME280;9763;48.780;9.212;2022-10-16T07:43:53;98431.66;;;20.54;79.36
19259;BME280;9763;48.780;9.212;2022-10-16T07:47:18;98435.63;;;20.58;79.25
19259;BME280;9763;48.780;9.212;2022-10-16T07:50:43;98436.16;;;20.61;78.98
19259;BME280;9763;48.780;9.212;2022-10-16T07:54:09;98443.59;;;20.66;79.11
19259;BME280;9763;48.780;9.212;2022-10-16T07:57:33;98450.09;;;20.71;79.04
19259;BME280;9763;48.780;9.212;2022-10-16T08:00:59;98453.59;;;20.72;79.77
19259;BME280;9763;48.780;9.212;2022-10-16T08:04:26;98456.91;;;20.74;79.84
19259;BME280;9763;48.780;9.212;2022-10-16T08:07:50;98450.63;;;20.75;79.33
19259;BME280;9763;48.780;9.212;2022-10-16T08:11:14;98457.75;;;20.82;79.40
19259;BME280;9763;48.780;9.212;2022-10-16T08:14:38;98456.44;;;20.95;79.47
19259;BME280;9763;48.780;9.212;2022-10-16T08:18:11;98451.16;;;21.11;79.95
19259;BME280;9763;48.780;9.212;2022-10-16T08:21:35;98445.88;;;21.35;79.59
19259;BME280;9763;48.780;9.212;2022-10-16T08:24:59;98453.81;;;21.68;79.55
19259;BME280;9763;48.780;9.212;2022-10-16T08:28:23;98466.28;;;22.22;79.66
19259;BME280;9763;48.780;9.212;2022-10-16T08:31:47;98479.56;;;22.78;79.60
19259;BME280;9763;48.780;9.212;2022-10-16T08:35:14;98481.50;;;23.07;78.75
19259;BME280;9763;48.780;9.212;2022-10-16T08:38:38;98482.59;;;23.20;78.80
19259;BME280;9763;48.780;9.212;2022-10-16T08:42:28;98478.28;;;23.42;78.58
19259;BME280;9763;48.780;9.212;2022-10-16T08:46:07;98477.97;;;23.60;78.49
19259;BME280;9763;48.780;9.212;2022-10-16T08:49:36;98482.81;;;23.56;77.86
19259;BME280;9763;48.780;9.212;2022-10-16T08:53:04;98484.69;;;23.48;77.88
19259;BME280;9763;48.780;9.212;2022-10-16T08:56:29;98479.16;;;23.34;77.82
19259;BME280;9763;48.780;9.212;2022-10-16T08:59:53;98482.22;;;23.23;77.80
19259;BME280;9763;48.780;9.212;2022-10-16T09:03:31;98486.31;;;23.11;77.83
19259;BME280;9763;48.780;9.212;2022-10-16T09:07:02;98487.16;;;23.12;77.76
19259;BME280;9763;48.780;9.212;2022-10-16T09:10:39;98490.53;;;23.28;77.61
19259;BME280;9763;48.780;9.212;2022-10-16T09:14:20;98486.38;;;23.49;77.87
19259;BME280;9763;48.780;9.212;2022-10-16T09:17:54;98473.31;;;23.77;77.93
19259;BME280;9763;48.780;9.212;2022-10-16T09:21:24;98476.19;;;24.19;77.66
19259;BME280;9763;48.780;9.212;2022-10-16T09:24:49;98476.38;;;24.62;77.71
19259;BME280;9763;48.780;9.212;2022-10-16T09:28:15;98488.72;;;24.99;77.03
19259;BME280;9763;48.780;9.212;2022-10-16T09:31:40;98504.78;;;25.20;76.51
19259;BME280;9763;48.780;9.212;2022-10-16T09:35:13;98497.00;;;25.25;76.10
19259;BME280;9763;48.780;9.212;2022-10-16T09:38:37;98502.84;;;26.06;78.93
19259;BME280;9763;48.780;9.212;2022-10-16T09:42:03;98503.03;;;27.80;77.74
19259;BME280;9763;48.780;9.212;2022-10-16T09:45:29;98500.34;;;28.20;73.88
19259;BME280;9763;48.780;9.212;2022-10-16T09:48:56;98494.78;;;27.88;73.10
19259;BME280;9763;48.780;9.212;2022-10-16T09:52:21;98497.88;;;27.72;72.57
19259;BME280;9763;48.780;9.212;2022-10-16T09:55:52;98498.97;;;28.55;73.73
19259;BME280;9763;48.780;9.212;2022-10-16T09:59:17;98489.19;;;29.19;71.52
19259;BME280;9763;48.780;9.212;2022-10-16T10:02:43;98502.66;;;29.12;69.91
19259;BME280;9763;48.780;9.212;2022-10-16T10:06:18;98515.84;;;28.82;69.04
19259;BME280;9763;48.780;9.212;2022-10-16T10:09:46;98513.44;;;28.54;69.46
19259;BME280;9763;48.780;9.212;2022-10-16T10:13:18;98522.41;;;28.28;69.52
19259;BME280;9763;48.780;9.212;2022-10-16T10:16:42;98525.91;;;28.03;70.04
19259;BME280;9763;48.780;9.212;2022-10-16T10:20:24;98517.28;;;27.87;69.53
19259;BME280;9763;48.780;9.212;2022-10-16T10:23:55;98533.59;;;27.86;70.32
19259;BME280;9763;48.780;9.212;2022-10-16T10:27:20;98522.84;;;27.86;70.74
19259;BME280;9763;48.780;9.212;2022-10-16T10:30:55;98523.88;;;27.85;70.90
19259;BME280;9763;48.780;9.212;2022-10-16T10:34:31;98522.84;;;27.73;70.84
19259;BME280;9763;48.780;9.212;2022-10-16T10:38:10;98529.84;;;27.67;70.72
19259;BME280;9763;48.780;9.212;2022-10-16T10:42:00;98528.44;;;27.71;70.77
19259;BME280;9763;48.780;9.212;2022-10-16T10:45:37;98526.78;;;27.83;71.07
19259;BME280;9763;48.780;9.212;2022-10-16T10:49:16;98530.06;;;27.92;70.68
19259;BME280;9763;48.780;9.212;2022-10-16T10:52:53;98531.91;;;28.11;71.04
19259;BME280;9763;48.780;9.212;2022-10-16T10:56:39;98531.34;;;29.25;72.88
19259;BME280;9763;48.780;9.212;2022-10-16T11:00:16;98524.13;;;30.50;71.58
19259;BME280;9763;48.780;9.212;2022-10-16T11:07:48;98527.09;;;31.14;68.26
19259;BME280;9763;48.780;9.212;2022-10-16T11:11:18;98523.28;;;31.34;67.42
19259;BME280;9763;48.780;9.212;2022-10-16T11:14:50;98519.97;;;31.62;67.52
19259;BME280;9763;48.780;9.212;2022-10-16T11:18:21;98507.81;;;32.41;66.28
19259;BME280;9763;48.780;9.212;2022-10-16T11:21:50;98505.34;;;32.28;65.28
19259;BME280;9763;48.780;9.212;2022-10-16T11:25:21;98500.88;;;32.10;65.35
19259;BME280;9763;48.780;9.212;2022-10-16T11:28:49;98502.63;;;31.93;64.97
19259;BME280;9763;48.780;9.212;2022-10-16T11:32:21;98501.81;;;31.92;64.99
19259;BME280;9763;48.780;9.212;2022-10-16T11:35:52;98506.28;;;31.98;64.57
19259;BME280;9763;48.780;9.212;2022-10-16T11:39:21;98502.88;;;32.26;64.58
19259;BME280;9763;48.780;9.212;2022-10-16T11:42:50;98499.16;;;32.79;63.48
19259;BME280;9763;48.780;9.212;2022-10-16T11:46:20;98491.44;;;32.59;62.49
19259;BME280;9763;48.780;9.212;2022-10-16T11:49:50;98494.47;;;32.63;62.15
19259;BME280;9763;48.780;9.212;2022-10-16T11:53:21;98496.31;;;32.85;61.10
19259;BME280;9763;48.780;9.212;2022-10-16T11:56:48;98497.06;;;32.98;60.51
19259;BME280;9763;48.780;9.212;2022-10-16T12:00:21;98486.47;;;33.08;60.29
19259;BME280;9763;48.780;9.212;2022-10-16T12:03:53;98490.19;;;32.90;60.76
19259;BME280;9763;48.780;9.212;2022-10-16T12:07:24;98483.59;;;32.46;61.61
19259;BME280;9763;48.780;9.212;2022-10-16T12:10:51;98481.25;;;31.79;62.77
19259;BME280;9763;48.780;9.212;2022-10-16T12:14:22;98488.31;;;31.27;63.78
19259;BME280;9763;48.780;9.212;2022-10-16T12:18:07;98490.94;;;30.86;65.31
19259;BME280;9763;48.780;9.212;2022-10-16T12:21:44;98488.09;;;30.44;65.79
19259;BME280;9763;48.780;9.212;2022-10-16T12:25:20;98492.50;;;30.20;66.36
19259;BME280;9763;48.780;9.212;2022-10-16T12:28:44;98493.94;;;30.04;67.45
19259;BME280;9763;48.780;9.212;2022-10-16T12:32:27;98490.94;;;29.88;67.01
19259;BME280;9763;48.780;9.212;2022-10-16T12:36:13;98506.28;;;29.62;67.58
19259;BME280;9763;48.780;9.212;2022-10-16T12:39:38;98506.22;;;29.44;68.94
19259;BME280;9763;48.780;9.212;2022-10-16T12:43:24;98494.63;;;29.37;68.89
19259;BME280;9763;48.780;9.212;2022-10-16T12:46:51;98502.91;;;29.35;69.47
19259;BME280;9763;48.780;9.212;2022-10-16T12:50:30;98496.72;;;29.42;68.79
19259;BME280;9763;48.780;9.212;2022-10-16T12:54:02;98500.84;;;29.44;69.22
19259;BME280;9763;48.780;9.212;2022-10-16T12:57:40;98496.09;;;29.40;69.22
19259;BME280;9763;48.780;9.212;2022-10-16T13:01:21;98509.47;;;29.15;69.65
19259;BME280;9763;48.780;9.212;2022-10-16T13:05:04;98510.06;;;28.85;69.80
19259;BME280;9763;48.780;9.212;2022-10-16T13:08:50;98512.16;;;28.63;70.14
19259;BME280;9763;48.780;9.212;2022-10-16T13:12:45;98518.03;;;28.47;70.00
19259;BME280;9763;48.780;9.212;2022-10-16T13:16:21;98517.81;;;28.42;70.38
19259;BME280;9763;48.780;9.212;2022-10-16T13:19:54;98515.75;;;28.44;71.02
19259;BME280;9763;48.780;9.212;2022-10-16T13:23:24;98516.38;;;28.40;70.76
19259;BME280;9763;48.780;9.212;2022-10-16T13:26:55;98515.78;;;28.31;70.79
19259;BME280;9763;48.780;9.212;2022-10-16T13:30:22;98513.97;;;28.25;70.96
19259;BME280;9763;48.780;9.212;2022-10-16T13:33:56;98518.88;;;28.15;70.70
19259;BME280;9763;48.780;9.212;2022-10-16T13:37:23;98518.69;;;28.10;71.04
19259;BME280;9763;48.780;9.212;2022-10-16T13:40:53;98520.34;;;28.04;70.83
19259;BME280;9763;48.780;9.212;2022-10-16T13:44:20;98525.72;;;28.04;70.86
19259;BME280;9763;48.780;9.212;2022-10-16T13:47:44;98513.94;;;28.05;70.76
19259;BME280;9763;48.780;9.212;2022-10-16T13:51:14;98517.25;;;28.07;71.24
19259;BME280;9763;48.780;9.212;2022-10-16T13:54:38;98523.44;;;28.08;71.19
19259;BME280;9763;48.780;9.212;2022-10-16T13:58:08;98514.16;;;28.04;71.26
19259;BME280;9763;48.780;9.212;2022-10-16T14:01:34;98516.47;;;27.87;71.80
19259;BME280;9763;48.780;9.212;2022-10-16T14:05:04;98524.50;;;27.67;71.46
19259;BME280;9763;48.780;9.212;2022-10-16T14:08:33;98524.66;;;27.46;72.17
19259;BME280;9763;48.780;9.212;2022-10-16T14:12:00;98522.59;;;27.28;72.48
19259;BME280;9763;48.780;9.212;2022-10-16T14:15:25;98519.03;;;27.14;72.08
19259;BME280;9763;48.780;9.212;2022-10-16T14:18:56;98521.69;;;27.01;72.64
19259;BME280;9763;48.780;9.212;2022-10-16T14:22:33;98522.88;;;26.92;72.92
19259;BME280;9763;48.780;9.212;2022-10-16T14:26:14;98525.72;;;26.84;73.31
19259;BME280;9763;48.780;9.212;2022-10-16T14:29:38;98532.91;;;26.77;73.79
19259;BME280;9763;48.780;9.212;2022-10-16T14:33:03;98528.31;;;26.71;73.93
19259;BME280;9763;48.780;9.212;2022-10-16T14:36:28;98533.88;;;26.69;73.87
19259;BME280;9763;48.780;9.212;2022-10-16T14:39:54;98538.00;;;26.65;73.77
19259;BME280;9763;48.780;9.212;2022-10-16T14:43:21;98539.03;;;26.64;74.28
19259;BME280;9763;48.780;9.212;2022-10-16T14:46:46;98533.03;;;26.56;74.36
19259;BME280;9763;48.780;9.212;2022-10-16T14:50:10;98530.69;;;26.46;74.56
19259;BME280;9763;48.780;9.212;2022-10-16T14:53:34;98544.88;;;26.40;74.74
19259;BME280;9763;48.780;9.212;2022-10-16T14:56:59;98534.09;;;26.33;74.91
19259;BME280;9763;48.780;9.212;2022-10-16T15:00:24;98547.28;;;26.28;74.87
19259;BME280;9763;48.780;9.212;2022-10-16T15:03:48;98544.31;;;26.23;74.34
19259;BME280;9763;48.780;9.212;2022-10-16T15:07:15;98533.78;;;26.15;74.90
19259;BME280;9763;48.780;9.212;2022-10-16T15:10:40;98531.44;;;26.05;75.15
19259;BME280;9763;48.780;9.212;2022-10-16T15:14:05;98532.63;;;25.96;75.32
19259;BME280;9763;48.780;9.212;2022-10-16T15:17:31;98541.22;;;25.92;75.51
19259;BME280;9763;48.780;9.212;2022-10-16T15:20:54;98539.94;;;25.88;75.30
19259;BME280;9763;48.780;9.212;2022-10-16T15:24:18;98539.72;;;25.82;75.58
19259;BME280;9763;48.780;9.212;2022-10-16T15:27:43;98537.59;;;25.78;74.85
19259;BME280;9763;48.780;9.212;2022-10-16T15:31:07;98535.91;;;25.70;75.16
19259;BME280;9763;48.780;9.212;2022-10-16T15:34:32;98540.91;;;25.59;75.33
19259;BME280;9763;48.780;9.212;2022-10-16T15:37:57;98536.66;;;25.43;75.77
19259;BME280;9763;48.780;9.212;2022-10-16T15:41:21;98544.16;;;25.33;75.63
19259;BME280;9763;48.780;9.212;2022-10-16T15:44:45;98547.16;;;25.23;75.71
19259;BME280;9763;48.780;9.212;2022-10-16T15:48:11;98543.09;;;25.12;75.47
19259;BME280;9763;48.780;9.212;2022-10-16T15:51:39;98544.25;;;25.03;75.95
19259;BME280;9763;48.780;9.212;2022-10-16T15:55:03;98551.38;;;24.96;75.87
19259;BME280;9763;48.780;9.212;2022-10-16T15:58:28;98556.75;;;24.88;75.80
19259;BME280;9763;48.780;9.212;2022-10-16T16:01:52;98553.56;;;24.78;75.95
19259;BME280;9763;48.780;9.212;2022-10-16T16:05:16;98552.38;;;24.66;75.34
19259;BME280;9763;48.780;9.212;2022-10-16T16:08:42;98551.38;;;24.52;75.96
19259;BME280;9763;48.780;9.212;2022-10-16T16:12:05;98552.41;;;24.36;76.38
19259;BME280;9763;48.780;9.212;2022-10-16T16:15:29;98550.88;;;24.19;76.58
19259;BME280;9763;48.780;9.212;2022-10-16T16:18:53;98555.56;;;24.02;76.17
19259;BME280;9763;48.780;9.212;2022-10-16T16:22:18;98552.22;;;23.86;76.36
19259;BME280;9763;48.780;9.212;2022-10-16T16:25:43;98564.47;;;23.72;76.30
19259;BME280;9763;48.780;9.212;2022-10-16T16:29:08;98564.81;;;23.54;76.73
19259;BME280;9763;48.780;9.212;2022-10-16T16:32:33;98576.19;;;23.40;76.97
19259;BME280;9763;48.780;9.212;2022-10-16T16:35:58;98574.28;;;23.26;77.38
19259;BME280;9763;48.780;9.212;2022-10-16T16:39:22;98581.00;;;23.14;77.61
19259;BME280;9763;48.780;9.212;2022-10-16T16:42:49;98578.56;;;23.04;77.73
19259;BME280;9763;48.780;9.212;2022-10-16T16:46:13;98579.44;;;22.96;78.21
19259;BME280;9763;48.780;9.212;2022-10-16T16:49:37;98582.63;;;22.92;78.09
19259;BME280;9763;48.780;9.212;2022-10-16T16:53:02;98582.81;;;22.90;78.36
19259;BME280;9763;48.780;9.212;2022-10-16T16:56:27;98585.63;;;22.89;77.91
19259;BME280;9763;48.780;9.212;2022-10-16T16:59:52;98583.97;;;22.88;78.07
19259;BME280;9763;48.780;9.212;2022-10-16T17:03:15;98589.13;;;22.89;78.51
19259;BME280;9763;48.780;9.212;2022-10-16T17:06:39;98590.25;;;22.95;78.21
19259;BME280;9763;48.780;9.212;2022-10-16T17:10:04;98597.91;;;22.98;78.18
19259;BME280;9763;48.780;9.212;2022-10-16T17:13:29;98601.72;;;23.04;78.66
19259;BME280;9763;48.780;9.212;2022-10-16T17:16:55;98603.84;;;23.08;78.21
19259;BME280;9763;48.780;9.212;2022-10-16T17:20:19;98602.50;;;23.12;77.86
19259;BME280;9763;48.780;9.212;2022-10-16T17:23:43;98605.81;;;23.14;77.74
19259;BME280;9763;48.780;9.212;2022-10-16T17:27:06;98612.81;;;23.15;77.68
19259;BME280;9763;48.780;9.212;2022-10-16T17:30:30;98608.47;;;23.14;77.84
19259;BME280;9763;48.780;9.212;2022-10-16T17:33:57;98623.78;;;23.12;77.36
19259;BME280;9763;48.780;9.212;2022-10-16T17:37:21;98616.81;;;23.11;77.08
19259;BME280;9763;48.780;9.212;2022-10-16T17:40:45;98619.63;;;23.10;76.79
19259;BME280;9763;48.780;9.212;2022-10-16T17:44:11;98627.63;;;23.10;76.87
19259;BME280;9763;48.780;9.212;2022-10-16T17:47:41;98634.50;;;23.04;76.86
19259;BME280;9763;48.780;9.212;2022-10-16T17:51:07;98646.63;;;23.07;76.77
19259;BME280;9763;48.780;9.212;2022-10-16T17:54:32;98635.50;;;23.03;76.68
19259;BME280;9763;48.780;9.212;2022-10-16T17:57:56;98641.34;;;22.98;76.72
19259;BME280;9763;48.780;9.212;2022-10-16T18:01:22;98644.88;;;22.91;76.23
19259;BME280;9763;48.780;9.212;2022-10-16T18:04:46;98651.84;;;22.84;76.52
19259;BME280;9763;48.780;9.212;2022-10-16T18:08:12;98652.03;;;22.74;76.30
19259;BME280;9763;48.780;9.212;2022-10-16T18:11:37;98652.22;;;22.64;75.76
19259;BME280;9763;48.780;9.212;2022-10-16T18:15:01;98648.94;;;22.54;75.82
19259;BME280;9763;48.780;9.212;2022-10-16T18:18:25;98660.59;;;22.45;75.89
19259;BME280;9763;48.780;9.212;2022-10-16T18:21:52;98659.75;;;22.37;76.06
19259;BME280;9763;48.780;9.212;2022-10-16T18:25:20;98666.75;;;22.30;75.64
19259;BME280;9763;48.780;9.212;2022-10-16T18:28:44;98666.56;;;22.23;75.82
19259;BME280;9763;48.780;9.212;2022-10-16T18:32:09;98668.09;;;22.17;75.81
19259;BME280;9763;48.780;9.212;2022-10-16T18:35:34;98674.72;;;22.13;76.21